Indianapolis, Indiana
Traffic Map
Current Weather Conditions
Indianapolis, Indiana
Few Clouds
Few Clouds
62°
Feels Like: 62°
Wind Chill: 62° Ceiling: Unl
Heat Index: 62° Visibility: 10mi
Dew Point: 47° Wind: 6mph
Humidity: 58% Direction: 190° (S)
Pressure: 30.11in Gusts: 0mph
Raw Report DataKIND 280354Z 19005KT 10SM FEW250 17/08 A3011 RMK AO2 SLP192 T01670083
Traffic Incident Summary
Active as of:
Severity:
Category:
InformationThere was an issue retrieving the traffic information for this location. Please try a different location or try again shortly.
Advertisements
Track Severe Weather on mobile